Purcell, Missouri
Current Conditions -  °F | °C
As of 1:09 AM on Friday 19 Dec 2014 (Local Time) from KJLN Reporting Station
Haze Haze  
Wind Chill: 36°   Ceiling: 300
Heat Index: 36°   Visibility: 1mi
Dew Point: 35°   Wind: 3mph
Humidity: 97%   Direction: 30°NNE
Pressure: 30.23"   Gusts: NA
Location:  37.24°N, 94.44°W
Report Text: KJLN 190709Z AUTO 03003KT 1SM BR OVC003 02/02 A3023 RMK AO2 T00220017
Loading
Personal Weather Stations






























Interactive Weather Map New forecast layout! Learn more

10-Day Weather Forecast

Advertisements
Track Severe Weather on mobile